sensor_id;sensor_type;location;lat;lon;timestamp;temperature;humidity
10468;DHT22;5281;48.878;9.394;2023-05-02T00:00:43;10.70;99.90
10468;DHT22;5281;48.878;9.394;2023-05-02T00:03:11;10.60;99.90
10468;DHT22;5281;48.878;9.394;2023-05-02T00:05:37;10.60;99.90
10468;DHT22;5281;48.878;9.394;2023-05-02T00:08:06;10.50;99.90
10468;DHT22;5281;48.878;9.394;2023-05-02T00:10:33;10.50;99.90
10468;DHT22;5281;48.878;9.394;2023-05-02T00:12:59;10.50;99.90
10468;DHT22;5281;48.878;9.394;2023-05-02T00:15:26;10.50;99.90
10468;DHT22;5281;48.878;9.394;2023-05-02T00:17:53;10.60;99.90
10468;DHT22;5281;48.878;9.394;2023-05-02T00:20:20;10.50;99.90
10468;DHT22;5281;48.878;9.394;2023-05-02T00:22:46;10.50;99.90
10468;DHT22;5281;48.878;9.394;2023-05-02T00:25:14;10.50;99.90
10468;DHT22;5281;48.878;9.394;2023-05-02T00:27:41;10.40;99.90
10468;DHT22;5281;48.878;9.394;2023-05-02T00:30:09;10.40;99.90
10468;DHT22;5281;48.878;9.394;2023-05-02T00:32:35;10.40;99.90
10468;DHT22;5281;48.878;9.394;2023-05-02T00:35:02;10.30;99.90
10468;DHT22;5281;48.878;9.394;2023-05-02T00:37:29;10.30;99.90
10468;DHT22;5281;48.878;9.394;2023-05-02T00:39:56;10.30;99.90
10468;DHT22;5281;48.878;9.394;2023-05-02T00:42:25;10.20;99.90
10468;DHT22;5281;48.878;9.394;2023-05-02T00:44:53;10.20;99.90
10468;DHT22;5281;48.878;9.394;2023-05-02T00:47:20;10.20;99.90
10468;DHT22;5281;48.878;9.394;2023-05-02T00:49:48;10.10;99.90
10468;DHT22;5281;48.878;9.394;2023-05-02T00:52:15;10.10;99.90
10468;DHT22;5281;48.878;9.394;2023-05-02T00:54:42;10.10;99.90
10468;DHT22;5281;48.878;9.394;2023-05-02T00:57:09;10.00;99.90
10468;DHT22;5281;48.878;9.394;2023-05-02T00:59:38;10.00;99.90
10468;DHT22;5281;48.878;9.394;2023-05-02T01:02:14;10.00;99.90
10468;DHT22;5281;48.878;9.394;2023-05-02T01:04:49;10.00;99.90
10468;DHT22;5281;48.878;9.394;2023-05-02T01:07:35;9.90;99.90
10468;DHT22;5281;48.878;9.394;2023-05-02T01:10:14;9.90;99.90
10468;DHT22;5281;48.878;9.394;2023-05-02T01:12:47;9.90;99.90
10468;DHT22;5281;48.878;9.394;2023-05-02T01:15:21;9.90;99.90
10468;DHT22;5281;48.878;9.394;2023-05-02T01:17:49;9.90;99.90
10468;DHT22;5281;48.878;9.394;2023-05-02T01:20:19;9.80;99.90
10468;DHT22;5281;48.878;9.394;2023-05-02T01:22:47;9.80;99.90
10468;DHT22;5281;48.878;9.394;2023-05-02T01:25:21;9.80;99.90
10468;DHT22;5281;48.878;9.394;2023-05-02T01:28:01;9.70;99.90
10468;DHT22;5281;48.878;9.394;2023-05-02T01:30:33;9.70;99.90
10468;DHT22;5281;48.878;9.394;2023-05-02T01:33:01;9.60;99.90
10468;DHT22;5281;48.878;9.394;2023-05-02T01:35:28;9.60;99.90
10468;DHT22;5281;48.878;9.394;2023-05-02T01:37:56;9.60;99.90
10468;DHT22;5281;48.878;9.394;2023-05-02T01:40:25;9.50;99.90
10468;DHT22;5281;48.878;9.394;2023-05-02T01:42:52;9.50;99.90
10468;DHT22;5281;48.878;9.394;2023-05-02T01:45:21;9.60;99.90
10468;DHT22;5281;48.878;9.394;2023-05-02T01:47:49;9.50;99.90
10468;DHT22;5281;48.878;9.394;2023-05-02T01:50:18;9.40;99.90
10468;DHT22;5281;48.878;9.394;2023-05-02T01:52:51;9.40;99.90
10468;DHT22;5281;48.878;9.394;2023-05-02T01:55:19;9.30;99.90
10468;DHT22;5281;48.878;9.394;2023-05-02T01:57:46;9.30;99.90
10468;DHT22;5281;48.878;9.394;2023-05-02T02:00:15;9.20;99.90
10468;DHT22;5281;48.878;9.394;2023-05-02T02:02:44;9.20;99.90
10468;DHT22;5281;48.878;9.394;2023-05-02T02:05:13;9.20;99.90
10468;DHT22;5281;48.878;9.394;2023-05-02T02:07:42;9.20;99.90
10468;DHT22;5281;48.878;9.394;2023-05-02T02:10:09;9.10;99.90
10468;DHT22;5281;48.878;9.394;2023-05-02T02:12:40;9.10;99.90
10468;DHT22;5281;48.878;9.394;2023-05-02T02:15:12;9.10;99.90
10468;DHT22;5281;48.878;9.394;2023-05-02T02:17:42;9.10;99.90
10468;DHT22;5281;48.878;9.394;2023-05-02T02:20:14;9.00;99.90
10468;DHT22;5281;48.878;9.394;2023-05-02T02:22:43;9.00;99.90
10468;DHT22;5281;48.878;9.394;2023-05-02T02:25:13;9.00;99.90
10468;DHT22;5281;48.878;9.394;2023-05-02T02:27:40;9.00;99.90
10468;DHT22;5281;48.878;9.394;2023-05-02T02:30:08;8.90;99.90
10468;DHT22;5281;48.878;9.394;2023-05-02T02:32:35;8.90;99.90
10468;DHT22;5281;48.878;9.394;2023-05-02T02:35:02;8.90;99.90
10468;DHT22;5281;48.878;9.394;2023-05-02T02:37:32;8.90;99.90
10468;DHT22;5281;48.878;9.394;2023-05-02T02:40:11;8.90;99.90
10468;DHT22;5281;48.878;9.394;2023-05-02T02:42:44;9.00;99.90
10468;DHT22;5281;48.878;9.394;2023-05-02T02:45:26;8.90;99.90
10468;DHT22;5281;48.878;9.394;2023-05-02T02:48:02;8.90;99.90
10468;DHT22;5281;48.878;9.394;2023-05-02T02:50:37;8.80;99.90
10468;DHT22;5281;48.878;9.394;2023-05-02T02:53:16;8.80;99.90
10468;DHT22;5281;48.878;9.394;2023-05-02T02:55:45;8.90;99.90
10468;DHT22;5281;48.878;9.394;2023-05-02T02:58:20;8.90;99.90
10468;DHT22;5281;48.878;9.394;2023-05-02T03:00:47;8.90;99.90
10468;DHT22;5281;48.878;9.394;2023-05-02T03:03:15;8.90;99.90
10468;DHT22;5281;48.878;9.394;2023-05-02T03:05:43;8.90;99.90
10468;DHT22;5281;48.878;9.394;2023-05-02T03:08:11;8.90;99.90
10468;DHT22;5281;48.878;9.394;2023-05-02T03:10:38;9.00;99.90
10468;DHT22;5281;48.878;9.394;2023-05-02T03:13:05;9.00;99.90
10468;DHT22;5281;48.878;9.394;2023-05-02T03:16:10;9.10;99.90
10468;DHT22;5281;48.878;9.394;2023-05-02T03:18:39;9.10;99.90
10468;DHT22;5281;48.878;9.394;2023-05-02T03:21:06;9.10;99.90
10468;DHT22;5281;48.878;9.394;2023-05-02T03:23:34;9.20;99.90
10468;DHT22;5281;48.878;9.394;2023-05-02T03:26:00;9.10;99.90
10468;DHT22;5281;48.878;9.394;2023-05-02T03:28:28;9.10;99.90
10468;DHT22;5281;48.878;9.394;2023-05-02T03:30:55;9.10;99.90
10468;DHT22;5281;48.878;9.394;2023-05-02T03:33:22;9.10;99.90
10468;DHT22;5281;48.878;9.394;2023-05-02T03:35:49;9.20;99.90
10468;DHT22;5281;48.878;9.394;2023-05-02T03:38:15;9.30;99.90
10468;DHT22;5281;48.878;9.394;2023-05-02T03:40:43;9.40;99.90
10468;DHT22;5281;48.878;9.394;2023-05-02T03:43:10;9.50;99.90
10468;DHT22;5281;48.878;9.394;2023-05-02T03:45:37;9.50;99.90
10468;DHT22;5281;48.878;9.394;2023-05-02T03:48:04;9.60;99.90
10468;DHT22;5281;48.878;9.394;2023-05-02T03:50:30;9.70;99.90
10468;DHT22;5281;48.878;9.394;2023-05-02T03:52:57;9.70;99.90
10468;DHT22;5281;48.878;9.394;2023-05-02T03:55:24;9.80;99.90
10468;DHT22;5281;48.878;9.394;2023-05-02T03:57:54;9.90;99.90
10468;DHT22;5281;48.878;9.394;2023-05-02T04:00:21;10.00;99.90
10468;DHT22;5281;48.878;9.394;2023-05-02T04:02:48;10.10;99.90
10468;DHT22;5281;48.878;9.394;2023-05-02T04:05:15;10.20;99.90
10468;DHT22;5281;48.878;9.394;2023-05-02T04:07:42;10.20;99.90
10468;DHT22;5281;48.878;9.394;2023-05-02T04:10:09;10.30;99.90
10468;DHT22;5281;48.878;9.394;2023-05-02T04:12:40;10.30;99.90
10468;DHT22;5281;48.878;9.394;2023-05-02T04:15:09;10.40;99.90
10468;DHT22;5281;48.878;9.394;2023-05-02T04:17:36;10.40;99.90
10468;DHT22;5281;48.878;9.394;2023-05-02T04:20:03;10.40;99.90
10468;DHT22;5281;48.878;9.394;2023-05-02T04:22:31;10.50;99.90
10468;DHT22;5281;48.878;9.394;2023-05-02T04:24:58;10.50;99.90
10468;DHT22;5281;48.878;9.394;2023-05-02T04:27:25;10.50;99.90
10468;DHT22;5281;48.878;9.394;2023-05-02T04:29:53;10.50;99.90
10468;DHT22;5281;48.878;9.394;2023-05-02T04:32:21;10.60;99.90
10468;DHT22;5281;48.878;9.394;2023-05-02T04:34:47;10.70;99.90
10468;DHT22;5281;48.878;9.394;2023-05-02T04:37:14;10.70;99.90
10468;DHT22;5281;48.878;9.394;2023-05-02T04:39:41;10.70;99.90
10468;DHT22;5281;48.878;9.394;2023-05-02T04:42:08;10.80;99.90
10468;DHT22;5281;48.878;9.394;2023-05-02T04:44:34;10.80;99.90
10468;DHT22;5281;48.878;9.394;2023-05-02T04:47:01;10.80;99.90
10468;DHT22;5281;48.878;9.394;2023-05-02T04:49:30;10.70;99.90
10468;DHT22;5281;48.878;9.394;2023-05-02T04:51:58;10.70;99.90
10468;DHT22;5281;48.878;9.394;2023-05-02T04:54:24;10.60;99.90
10468;DHT22;5281;48.878;9.394;2023-05-02T04:56:52;10.60;99.90
10468;DHT22;5281;48.878;9.394;2023-05-02T04:59:19;10.60;99.90
10468;DHT22;5281;48.878;9.394;2023-05-02T05:01:45;10.70;99.90
10468;DHT22;5281;48.878;9.394;2023-05-02T05:04:12;10.70;99.90
10468;DHT22;5281;48.878;9.394;2023-05-02T05:06:40;10.70;99.90
10468;DHT22;5281;48.878;9.394;2023-05-02T05:09:07;10.80;99.90
10468;DHT22;5281;48.878;9.394;2023-05-02T05:11:34;10.90;99.90
10468;DHT22;5281;48.878;9.394;2023-05-02T05:14:00;10.90;99.90
10468;DHT22;5281;48.878;9.394;2023-05-02T05:16:28;11.10;99.90
10468;DHT22;5281;48.878;9.394;2023-05-02T05:18:56;11.20;99.90
10468;DHT22;5281;48.878;9.394;2023-05-02T05:21:23;11.30;99.90
10468;DHT22;5281;48.878;9.394;2023-05-02T05:23:51;11.40;99.90
10468;DHT22;5281;48.878;9.394;2023-05-02T05:26:17;11.50;99.90
10468;DHT22;5281;48.878;9.394;2023-05-02T05:28:45;11.60;99.90
10468;DHT22;5281;48.878;9.394;2023-05-02T05:31:13;11.80;99.90
10468;DHT22;5281;48.878;9.394;2023-05-02T05:33:41;11.90;99.90
10468;DHT22;5281;48.878;9.394;2023-05-02T05:36:09;12.10;99.90
10468;DHT22;5281;48.878;9.394;2023-05-02T05:38:36;12.30;99.90
10468;DHT22;5281;48.878;9.394;2023-05-02T05:41:05;12.60;99.90
10468;DHT22;5281;48.878;9.394;2023-05-02T05:43:33;12.80;99.90
10468;DHT22;5281;48.878;9.394;2023-05-02T05:46:00;13.10;99.90
10468;DHT22;5281;48.878;9.394;2023-05-02T05:48:27;13.30;99.90
10468;DHT22;5281;48.878;9.394;2023-05-02T05:50:54;13.50;99.90
10468;DHT22;5281;48.878;9.394;2023-05-02T05:53:20;13.70;99.90
10468;DHT22;5281;48.878;9.394;2023-05-02T05:55:47;13.90;99.90
10468;DHT22;5281;48.878;9.394;2023-05-02T05:58:15;14.20;99.90
10468;DHT22;5281;48.878;9.394;2023-05-02T06:00:42;14.40;99.90
10468;DHT22;5281;48.878;9.394;2023-05-02T06:03:09;14.50;99.90
10468;DHT22;5281;48.878;9.394;2023-05-02T06:05:35;14.60;99.90
10468;DHT22;5281;48.878;9.394;2023-05-02T06:08:02;14.50;99.90
10468;DHT22;5281;48.878;9.394;2023-05-02T06:10:30;14.60;99.90
10468;DHT22;5281;48.878;9.394;2023-05-02T06:12:57;14.70;99.90
10468;DHT22;5281;48.878;9.394;2023-05-02T06:15:25;14.80;99.90
10468;DHT22;5281;48.878;9.394;2023-05-02T06:17:51;14.70;99.90
10468;DHT22;5281;48.878;9.394;2023-05-02T06:20:18;14.80;99.90
10468;DHT22;5281;48.878;9.394;2023-05-02T06:22:45;14.80;99.90
10468;DHT22;5281;48.878;9.394;2023-05-02T06:25:12;14.90;99.90
10468;DHT22;5281;48.878;9.394;2023-05-02T06:27:38;15.00;99.90
10468;DHT22;5281;48.878;9.394;2023-05-02T06:30:06;15.20;99.90
10468;DHT22;5281;48.878;9.394;2023-05-02T06:32:34;15.40;99.90
10468;DHT22;5281;48.878;9.394;2023-05-02T06:35:01;15.40;99.90
10468;DHT22;5281;48.878;9.394;2023-05-02T06:37:32;15.60;99.90
10468;DHT22;5281;48.878;9.394;2023-05-02T06:40:00;15.60;99.90
10468;DHT22;5281;48.878;9.394;2023-05-02T06:42:26;15.80;99.90
10468;DHT22;5281;48.878;9.394;2023-05-02T06:44:53;15.90;99.90
10468;DHT22;5281;48.878;9.394;2023-05-02T06:47:20;16.10;99.90
10468;DHT22;5281;48.878;9.394;2023-05-02T06:49:50;16.60;99.90
10468;DHT22;5281;48.878;9.394;2023-05-02T06:52:17;17.00;99.90
10468;DHT22;5281;48.878;9.394;2023-05-02T06:54:44;17.30;99.90
10468;DHT22;5281;48.878;9.394;2023-05-02T06:57:10;17.50;99.90
10468;DHT22;5281;48.878;9.394;2023-05-02T06:59:37;17.60;99.90
10468;DHT22;5281;48.878;9.394;2023-05-02T07:02:04;17.30;99.90
10468;DHT22;5281;48.878;9.394;2023-05-02T07:04:31;17.20;99.90
10468;DHT22;5281;48.878;9.394;2023-05-02T07:06:59;16.90;99.90
10468;DHT22;5281;48.878;9.394;2023-05-02T07:09:26;16.50;99.90
10468;DHT22;5281;48.878;9.394;2023-05-02T07:11:52;16.00;99.90
10468;DHT22;5281;48.878;9.394;2023-05-02T07:14:19;16.30;99.90
10468;DHT22;5281;48.878;9.394;2023-05-02T07:16:46;15.90;99.90
10468;DHT22;5281;48.878;9.394;2023-05-02T07:19:12;15.60;99.90
10468;DHT22;5281;48.878;9.394;2023-05-02T07:21:39;15.80;99.90
10468;DHT22;5281;48.878;9.394;2023-05-02T07:24:07;15.80;99.90
10468;DHT22;5281;48.878;9.394;2023-05-02T07:26:34;15.70;99.90
10468;DHT22;5281;48.878;9.394;2023-05-02T07:29:00;15.50;99.90
10468;DHT22;5281;48.878;9.394;2023-05-02T07:31:27;15.80;99.90
10468;DHT22;5281;48.878;9.394;2023-05-02T07:33:54;16.10;99.90
10468;DHT22;5281;48.878;9.394;2023-05-02T07:36:20;16.40;99.90
10468;DHT22;5281;48.878;9.394;2023-05-02T07:38:47;16.40;99.90
10468;DHT22;5281;48.878;9.394;2023-05-02T07:41:16;16.10;99.90
10468;DHT22;5281;48.878;9.394;2023-05-02T07:43:42;15.80;99.90
10468;DHT22;5281;48.878;9.394;2023-05-02T07:46:09;15.90;99.90
10468;DHT22;5281;48.878;9.394;2023-05-02T07:48:36;15.90;99.90
10468;DHT22;5281;48.878;9.394;2023-05-02T07:51:06;16.20;99.90
10468;DHT22;5281;48.878;9.394;2023-05-02T07:53:33;16.50;99.90
10468;DHT22;5281;48.878;9.394;2023-05-02T07:56:00;16.90;99.90
10468;DHT22;5281;48.878;9.394;2023-05-02T07:58:28;17.10;99.90
10468;DHT22;5281;48.878;9.394;2023-05-02T08:00:56;17.30;99.90
10468;DHT22;5281;48.878;9.394;2023-05-02T08:03:23;17.40;99.90
10468;DHT22;5281;48.878;9.394;2023-05-02T08:05:49;17.40;99.90
10468;DHT22;5281;48.878;9.394;2023-05-02T08:08:16;17.40;99.90
10468;DHT22;5281;48.878;9.394;2023-05-02T08:10:43;17.30;99.90
10468;DHT22;5281;48.878;9.394;2023-05-02T08:13:10;17.00;99.90
10468;DHT22;5281;48.878;9.394;2023-05-02T08:15:38;17.00;99.90
10468;DHT22;5281;48.878;9.394;2023-05-02T08:18:05;16.90;99.90
10468;DHT22;5281;48.878;9.394;2023-05-02T08:20:32;16.90;99.90
10468;DHT22;5281;48.878;9.394;2023-05-02T08:22:58;17.20;99.90
10468;DHT22;5281;48.878;9.394;2023-05-02T08:25:25;17.60;99.90
10468;DHT22;5281;48.878;9.394;2023-05-02T08:27:52;17.80;99.90
10468;DHT22;5281;48.878;9.394;2023-05-02T08:30:18;18.10;99.90
10468;DHT22;5281;48.878;9.394;2023-05-02T08:32:46;18.30;99.90
10468;DHT22;5281;48.878;9.394;2023-05-02T08:35:13;18.20;99.90
10468;DHT22;5281;48.878;9.394;2023-05-02T08:37:40;18.20;99.90
10468;DHT22;5281;48.878;9.394;2023-05-02T08:40:11;18.40;99.90
10468;DHT22;5281;48.878;9.394;2023-05-02T08:42:41;18.50;99.90
10468;DHT22;5281;48.878;9.394;2023-05-02T08:45:10;18.30;99.90
10468;DHT22;5281;48.878;9.394;2023-05-02T08:47:38;18.10;99.90
10468;DHT22;5281;48.878;9.394;2023-05-02T08:50:08;18.30;99.90
10468;DHT22;5281;48.878;9.394;2023-05-02T08:52:35;18.60;99.90
10468;DHT22;5281;48.878;9.394;2023-05-02T08:55:03;19.00;99.90
10468;DHT22;5281;48.878;9.394;2023-05-02T08:57:30;19.40;99.90
10468;DHT22;5281;48.878;9.394;2023-05-02T08:59:57;19.80;99.90
10468;DHT22;5281;48.878;9.394;2023-05-02T09:02:38;20.30;99.90
10468;DHT22;5281;48.878;9.394;2023-05-02T09:05:10;20.60;99.90
10468;DHT22;5281;48.878;9.394;2023-05-02T09:07:44;21.10;99.90
10468;DHT22;5281;48.878;9.394;2023-05-02T09:10:11;21.40;99.90
10468;DHT22;5281;48.878;9.394;2023-05-02T09:12:38;21.60;99.90
10468;DHT22;5281;48.878;9.394;2023-05-02T09:15:09;21.70;99.90
10468;DHT22;5281;48.878;9.394;2023-05-02T09:17:43;21.80;99.90
10468;DHT22;5281;48.878;9.394;2023-05-02T09:20:12;21.80;99.90
10468;DHT22;5281;48.878;9.394;2023-05-02T09:22:47;21.70;99.90
10468;DHT22;5281;48.878;9.394;2023-05-02T09:25:15;21.70;99.90
10468;DHT22;5281;48.878;9.394;2023-05-02T09:27:49;21.90;99.90
10468;DHT22;5281;48.878;9.394;2023-05-02T09:30:18;22.20;99.90
10468;DHT22;5281;48.878;9.394;2023-05-02T09:32:46;22.50;99.90
10468;DHT22;5281;48.878;9.394;2023-05-02T09:35:17;22.80;99.90
10468;DHT22;5281;48.878;9.394;2023-05-02T09:37:49;23.30;99.90
10468;DHT22;5281;48.878;9.394;2023-05-02T09:40:16;23.50;99.90
10468;DHT22;5281;48.878;9.394;2023-05-02T09:42:44;23.70;99.90
10468;DHT22;5281;48.878;9.394;2023-05-02T09:45:19;23.60;99.90
10468;DHT22;5281;48.878;9.394;2023-05-02T09:47:46;23.10;99.90
10468;DHT22;5281;48.878;9.394;2023-05-02T09:50:31;22.60;99.90
10468;DHT22;5281;48.878;9.394;2023-05-02T09:53:03;22.20;99.90
10468;DHT22;5281;48.878;9.394;2023-05-02T09:55:29;22.20;99.90
10468;DHT22;5281;48.878;9.394;2023-05-02T09:57:57;22.20;99.90
10468;DHT22;5281;48.878;9.394;2023-05-02T10:00:38;22.30;99.90
10468;DHT22;5281;48.878;9.394;2023-05-02T10:03:06;22.50;99.90
10468;DHT22;5281;48.878;9.394;2023-05-02T10:05:36;22.50;99.90
10468;DHT22;5281;48.878;9.394;2023-05-02T10:08:04;22.20;99.90
10468;DHT22;5281;48.878;9.394;2023-05-02T10:10:32;22.20;99.90
10468;DHT22;5281;48.878;9.394;2023-05-02T10:12:59;22.10;99.90
10468;DHT22;5281;48.878;9.394;2023-05-02T10:15:29;21.90;99.90
10468;DHT22;5281;48.878;9.394;2023-05-02T10:17:58;21.40;99.90
10468;DHT22;5281;48.878;9.394;2023-05-02T10:20:29;20.80;99.90
10468;DHT22;5281;48.878;9.394;2023-05-02T10:22:59;20.70;99.90
10468;DHT22;5281;48.878;9.394;2023-05-02T10:25:27;20.60;99.90
10468;DHT22;5281;48.878;9.394;2023-05-02T10:27:55;20.70;99.90
10468;DHT22;5281;48.878;9.394;2023-05-02T10:30:22;20.60;99.90
10468;DHT22;5281;48.878;9.394;2023-05-02T10:32:50;20.60;99.90
10468;DHT22;5281;48.878;9.394;2023-05-02T10:35:17;20.90;99.90
10468;DHT22;5281;48.878;9.394;2023-05-02T10:37:45;21.20;99.90
10468;DHT22;5281;48.878;9.394;2023-05-02T10:40:14;21.50;99.90
10468;DHT22;5281;48.878;9.394;2023-05-02T10:42:43;21.40;99.90
10468;DHT22;5281;48.878;9.394;2023-05-02T10:45:11;21.40;99.90
10468;DHT22;5281;48.878;9.394;2023-05-02T10:47:39;21.40;99.90
10468;DHT22;5281;48.878;9.394;2023-05-02T10:50:06;21.60;99.90
10468;DHT22;5281;48.878;9.394;2023-05-02T10:52:35;21.60;99.90
10468;DHT22;5281;48.878;9.394;2023-05-02T10:55:20;21.80;99.90
10468;DHT22;5281;48.878;9.394;2023-05-02T10:58:21;21.90;99.90
10468;DHT22;5281;48.878;9.394;2023-05-02T11:00:47;21.90;99.90
10468;DHT22;5281;48.878;9.394;2023-05-02T11:03:53;22.20;99.60
10468;DHT22;5281;48.878;9.394;2023-05-02T11:06:20;22.50;99.70
10468;DHT22;5281;48.878;9.394;2023-05-02T11:08:47;22.60;99.90
10468;DHT22;5281;48.878;9.394;2023-05-02T11:11:40;22.80;99.10
10468;DHT22;5281;48.878;9.394;2023-05-02T11:14:07;22.70;99.30
10468;DHT22;5281;48.878;9.394;2023-05-02T11:17:08;22.70;99.00
10468;DHT22;5281;48.878;9.394;2023-05-02T11:22:52;22.80;97.70
10468;DHT22;5281;48.878;9.394;2023-05-02T11:25:43;22.90;97.40
10468;DHT22;5281;48.878;9.394;2023-05-02T11:28:39;23.20;95.80
10468;DHT22;5281;48.878;9.394;2023-05-02T11:31:06;23.30;95.00
10468;DHT22;5281;48.878;9.394;2023-05-02T11:33:34;23.10;95.80
10468;DHT22;5281;48.878;9.394;2023-05-02T11:36:01;23.00;96.30
10468;DHT22;5281;48.878;9.394;2023-05-02T11:38:35;23.00;96.40
10468;DHT22;5281;48.878;9.394;2023-05-02T11:41:01;23.10;95.90
10468;DHT22;5281;48.878;9.394;2023-05-02T11:43:28;23.20;96.20
10468;DHT22;5281;48.878;9.394;2023-05-02T11:45:57;23.10;96.00
10468;DHT22;5281;48.878;9.394;2023-05-02T11:48:25;23.30;95.80
10468;DHT22;5281;48.878;9.394;2023-05-02T11:50:54;23.60;95.70
10468;DHT22;5281;48.878;9.394;2023-05-02T11:53:22;24.00;94.60
10468;DHT22;5281;48.878;9.394;2023-05-02T11:55:50;24.30;93.40
10468;DHT22;5281;48.878;9.394;2023-05-02T11:58:19;24.30;92.50
10468;DHT22;5281;48.878;9.394;2023-05-02T12:00:46;24.20;92.50
10468;DHT22;5281;48.878;9.394;2023-05-02T12:03:22;24.10;92.50
10468;DHT22;5281;48.878;9.394;2023-05-02T12:05:49;23.90;93.60
10468;DHT22;5281;48.878;9.394;2023-05-02T12:08:21;24.00;93.90
10468;DHT22;5281;48.878;9.394;2023-05-02T12:10:49;24.20;94.30
10468;DHT22;5281;48.878;9.394;2023-05-02T12:13:18;24.40;93.00
10468;DHT22;5281;48.878;9.394;2023-05-02T12:15:45;24.60;92.40
10468;DHT22;5281;48.878;9.394;2023-05-02T12:18:12;24.80;91.90
10468;DHT22;5281;48.878;9.394;2023-05-02T12:20:41;25.20;91.70
10468;DHT22;5281;48.878;9.394;2023-05-02T12:23:08;25.60;90.90
10468;DHT22;5281;48.878;9.394;2023-05-02T12:25:39;25.80;91.10
10468;DHT22;5281;48.878;9.394;2023-05-02T12:28:07;25.40;91.30
10468;DHT22;5281;48.878;9.394;2023-05-02T12:30:36;24.80;91.20
10468;DHT22;5281;48.878;9.394;2023-05-02T12:33:04;23.90;91.80
10468;DHT22;5281;48.878;9.394;2023-05-02T12:35:32;23.20;93.10
10468;DHT22;5281;48.878;9.394;2023-05-02T12:38:16;22.80;94.60
10468;DHT22;5281;48.878;9.394;2023-05-02T12:40:47;22.10;96.40
10468;DHT22;5281;48.878;9.394;2023-05-02T12:43:14;21.60;97.20
10468;DHT22;5281;48.878;9.394;2023-05-02T12:45:41;21.20;98.60
10468;DHT22;5281;48.878;9.394;2023-05-02T12:48:22;21.10;99.90
10468;DHT22;5281;48.878;9.394;2023-05-02T12:50:49;21.30;99.90
10468;DHT22;5281;48.878;9.394;2023-05-02T12:53:37;21.50;99.90
10468;DHT22;5281;48.878;9.394;2023-05-02T12:56:04;21.50;99.90
10468;DHT22;5281;48.878;9.394;2023-05-02T12:58:40;21.60;99.90
10468;DHT22;5281;48.878;9.394;2023-05-02T13:01:07;21.60;99.90
10468;DHT22;5281;48.878;9.394;2023-05-02T13:03:35;21.80;99.90
10468;DHT22;5281;48.878;9.394;2023-05-02T13:06:01;21.90;99.90
10468;DHT22;5281;48.878;9.394;2023-05-02T13:08:30;21.90;99.90
10468;DHT22;5281;48.878;9.394;2023-05-02T13:10:57;21.70;99.90
10468;DHT22;5281;48.878;9.394;2023-05-02T13:13:24;21.60;99.90
10468;DHT22;5281;48.878;9.394;2023-05-02T13:15:51;21.70;99.90
10468;DHT22;5281;48.878;9.394;2023-05-02T13:18:17;21.80;99.90
10468;DHT22;5281;48.878;9.394;2023-05-02T13:20:44;21.80;99.90
10468;DHT22;5281;48.878;9.394;2023-05-02T13:23:11;22.00;99.90
10468;DHT22;5281;48.878;9.394;2023-05-02T13:25:39;22.10;99.90
10468;DHT22;5281;48.878;9.394;2023-05-02T13:28:05;22.20;99.90
10468;DHT22;5281;48.878;9.394;2023-05-02T13:30:32;22.30;99.90
10468;DHT22;5281;48.878;9.394;2023-05-02T13:32:59;22.20;99.90
10468;DHT22;5281;48.878;9.394;2023-05-02T13:35:25;22.20;99.90
10468;DHT22;5281;48.878;9.394;2023-05-02T13:37:52;21.90;99.40
10468;DHT22;5281;48.878;9.394;2023-05-02T13:40:19;21.50;99.80
10468;DHT22;5281;48.878;9.394;2023-05-02T13:42:47;21.30;99.90
10468;DHT22;5281;48.878;9.394;2023-05-02T13:45:14;21.20;99.50
10468;DHT22;5281;48.878;9.394;2023-05-02T13:47:41;21.30;99.30
10468;DHT22;5281;48.878;9.394;2023-05-02T13:50:08;21.30;99.30
10468;DHT22;5281;48.878;9.394;2023-05-02T13:52:36;21.10;98.60
10468;DHT22;5281;48.878;9.394;2023-05-02T13:55:03;21.00;99.00
10468;DHT22;5281;48.878;9.394;2023-05-02T13:57:30;20.90;99.10
10468;DHT22;5281;48.878;9.394;2023-05-02T13:59:58;21.20;98.80
10468;DHT22;5281;48.878;9.394;2023-05-02T14:02:25;21.40;98.90
10468;DHT22;5281;48.878;9.394;2023-05-02T14:04:53;21.40;98.70
10468;DHT22;5281;48.878;9.394;2023-05-02T14:07:19;21.20;98.70
10468;DHT22;5281;48.878;9.394;2023-05-02T14:09:46;21.10;98.80
10468;DHT22;5281;48.878;9.394;2023-05-02T14:12:13;21.00;95.60
10468;DHT22;5281;48.878;9.394;2023-05-02T14:14:40;20.80;95.60
10468;DHT22;5281;48.878;9.394;2023-05-02T14:17:08;20.70;95.90
10468;DHT22;5281;48.878;9.394;2023-05-02T14:19:35;20.50;95.90
10468;DHT22;5281;48.878;9.394;2023-05-02T14:22:02;20.40;93.90
10468;DHT22;5281;48.878;9.394;2023-05-02T14:24:29;20.40;95.10
10468;DHT22;5281;48.878;9.394;2023-05-02T14:26:56;20.30;95.00
10468;DHT22;5281;48.878;9.394;2023-05-02T14:29:24;20.30;95.20
10468;DHT22;5281;48.878;9.394;2023-05-02T14:31:50;20.30;94.20
10468;DHT22;5281;48.878;9.394;2023-05-02T14:34:19;20.10;94.50
10468;DHT22;5281;48.878;9.394;2023-05-02T14:36:46;20.10;94.60
10468;DHT22;5281;48.878;9.394;2023-05-02T14:39:13;20.30;95.20
10468;DHT22;5281;48.878;9.394;2023-05-02T14:41:40;20.30;94.60
10468;DHT22;5281;48.878;9.394;2023-05-02T14:44:07;20.30;94.40
10468;DHT22;5281;48.878;9.394;2023-05-02T14:46:34;20.30;94.20
10468;DHT22;5281;48.878;9.394;2023-05-02T14:49:00;20.30;94.80
10468;DHT22;5281;48.878;9.394;2023-05-02T14:51:29;20.50;95.10
10468;DHT22;5281;48.878;9.394;2023-05-02T14:53:56;20.80;95.30
10468;DHT22;5281;48.878;9.394;2023-05-02T14:56:23;21.10;95.80
10468;DHT22;5281;48.878;9.394;2023-05-02T14:58:50;21.40;95.20
10468;DHT22;5281;48.878;9.394;2023-05-02T15:01:17;21.40;94.40
10468;DHT22;5281;48.878;9.394;2023-05-02T15:03:44;21.20;94.20
10468;DHT22;5281;48.878;9.394;2023-05-02T15:06:12;20.80;94.20
10468;DHT22;5281;48.878;9.394;2023-05-02T15:08:40;20.50;94.60
10468;DHT22;5281;48.878;9.394;2023-05-02T15:11:09;20.40;93.90
10468;DHT22;5281;48.878;9.394;2023-05-02T15:13:36;20.20;95.20
10468;DHT22;5281;48.878;9.394;2023-05-02T15:16:03;19.90;95.40
10468;DHT22;5281;48.878;9.394;2023-05-02T15:18:30;19.70;95.50
10468;DHT22;5281;48.878;9.394;2023-05-02T15:20:57;19.50;96.40
10468;DHT22;5281;48.878;9.394;2023-05-02T15:23:23;19.50;96.30
10468;DHT22;5281;48.878;9.394;2023-05-02T15:25:52;19.50;96.80
10468;DHT22;5281;48.878;9.394;2023-05-02T15:28:19;19.70;96.50
10468;DHT22;5281;48.878;9.394;2023-05-02T15:30:45;19.80;95.60
10468;DHT22;5281;48.878;9.394;2023-05-02T15:33:13;20.00;94.50
10468;DHT22;5281;48.878;9.394;2023-05-02T15:35:47;20.10;94.10
10468;DHT22;5281;48.878;9.394;2023-05-02T15:38:17;20.20;93.80
10468;DHT22;5281;48.878;9.394;2023-05-02T15:40:44;20.10;93.30
10468;DHT22;5281;48.878;9.394;2023-05-02T15:43:19;20.10;93.70
10468;DHT22;5281;48.878;9.394;2023-05-02T15:45:50;19.90;93.70
10468;DHT22;5281;48.878;9.394;2023-05-02T15:48:17;19.70;94.50
10468;DHT22;5281;48.878;9.394;2023-05-02T15:50:44;19.80;94.80
10468;DHT22;5281;48.878;9.394;2023-05-02T15:53:11;19.80;95.20
10468;DHT22;5281;48.878;9.394;2023-05-02T15:55:39;19.90;95.20
10468;DHT22;5281;48.878;9.394;2023-05-02T15:58:06;19.90;94.90
10468;DHT22;5281;48.878;9.394;2023-05-02T16:00:35;19.90;94.60
10468;DHT22;5281;48.878;9.394;2023-05-02T16:03:01;19.80;95.10